sensor_id;sensor_type;location;lat;lon;timestamp;temperature;humidity
23160;DHT22;11748;50.844;4.396;2023-04-03T00:02:17;6.40;99.90
23160;DHT22;11748;50.844;4.396;2023-04-03T00:04:43;6.40;99.90
23160;DHT22;11748;50.844;4.396;2023-04-03T00:07:08;6.30;99.90
23160;DHT22;11748;50.844;4.396;2023-04-03T00:09:34;6.40;99.90
23160;DHT22;11748;50.844;4.396;2023-04-03T00:12:00;6.30;99.90
23160;DHT22;11748;50.844;4.396;2023-04-03T00:14:26;6.30;99.90
23160;DHT22;11748;50.844;4.396;2023-04-03T00:16:53;6.30;99.90
23160;DHT22;11748;50.844;4.396;2023-04-03T00:19:19;6.30;99.90
23160;DHT22;11748;50.844;4.396;2023-04-03T00:21:45;6.30;99.90
23160;DHT22;11748;50.844;4.396;2023-04-03T00:24:11;6.30;99.90
23160;DHT22;11748;50.844;4.396;2023-04-03T00:26:36;6.20;99.90
23160;DHT22;11748;50.844;4.396;2023-04-03T00:29:02;6.10;99.90
23160;DHT22;11748;50.844;4.396;2023-04-03T00:31:28;6.20;99.90
23160;DHT22;11748;50.844;4.396;2023-04-03T00:33:54;6.10;99.90
23160;DHT22;11748;50.844;4.396;2023-04-03T00:36:19;6.10;99.90
23160;DHT22;11748;50.844;4.396;2023-04-03T00:38:45;6.10;99.90
23160;DHT22;11748;50.844;4.396;2023-04-03T00:41:11;6.00;99.90
23160;DHT22;11748;50.844;4.396;2023-04-03T00:43:37;6.00;99.90
23160;DHT22;11748;50.844;4.396;2023-04-03T00:46:03;6.00;99.90
23160;DHT22;11748;50.844;4.396;2023-04-03T00:48:36;6.00;99.90
23160;DHT22;11748;50.844;4.396;2023-04-03T00:51:04;6.00;99.90
23160;DHT22;11748;50.844;4.396;2023-04-03T00:53:35;6.00;99.90
23160;DHT22;11748;50.844;4.396;2023-04-03T00:56:06;5.90;99.90
23160;DHT22;11748;50.844;4.396;2023-04-03T00:58:38;5.90;99.90
23160;DHT22;11748;50.844;4.396;2023-04-03T01:01:08;5.90;99.90
23160;DHT22;11748;50.844;4.396;2023-04-03T01:03:35;5.90;99.90
23160;DHT22;11748;50.844;4.396;2023-04-03T01:06:02;6.00;99.90
23160;DHT22;11748;50.844;4.396;2023-04-03T01:08:28;5.90;99.90
23160;DHT22;11748;50.844;4.396;2023-04-03T01:10:54;5.90;99.90
23160;DHT22;11748;50.844;4.396;2023-04-03T01:13:24;5.90;99.90
23160;DHT22;11748;50.844;4.396;2023-04-03T01:15:50;5.80;99.90
23160;DHT22;11748;50.844;4.396;2023-04-03T01:18:16;5.80;99.90
23160;DHT22;11748;50.844;4.396;2023-04-03T01:23:52;5.70;99.90
23160;DHT22;11748;50.844;4.396;2023-04-03T01:26:19;5.60;99.90
23160;DHT22;11748;50.844;4.396;2023-04-03T01:28:45;5.60;99.90
23160;DHT22;11748;50.844;4.396;2023-04-03T01:31:24;5.60;99.90
23160;DHT22;11748;50.844;4.396;2023-04-03T01:33:51;5.60;99.90
23160;DHT22;11748;50.844;4.396;2023-04-03T01:36:29;5.60;99.90
23160;DHT22;11748;50.844;4.396;2023-04-03T01:38:55;5.50;99.90
23160;DHT22;11748;50.844;4.396;2023-04-03T01:41:22;5.60;99.90
23160;DHT22;11748;50.844;4.396;2023-04-03T01:43:48;5.60;99.90
23160;DHT22;11748;50.844;4.396;2023-04-03T01:46:15;5.60;99.90
23160;DHT22;11748;50.844;4.396;2023-04-03T01:48:41;5.50;99.90
23160;DHT22;11748;50.844;4.396;2023-04-03T01:51:07;5.50;99.90
23160;DHT22;11748;50.844;4.396;2023-04-03T01:53:33;5.50;99.90
23160;DHT22;11748;50.844;4.396;2023-04-03T01:55:59;5.50;99.90
23160;DHT22;11748;50.844;4.396;2023-04-03T01:58:25;5.50;99.90
23160;DHT22;11748;50.844;4.396;2023-04-03T02:00:51;5.50;99.90
23160;DHT22;11748;50.844;4.396;2023-04-03T02:03:17;5.50;99.90
23160;DHT22;11748;50.844;4.396;2023-04-03T02:05:42;5.50;99.90
23160;DHT22;11748;50.844;4.396;2023-04-03T02:08:08;5.30;99.90
23160;DHT22;11748;50.844;4.396;2023-04-03T02:10:34;5.30;99.90
23160;DHT22;11748;50.844;4.396;2023-04-03T02:13:00;5.30;99.90
23160;DHT22;11748;50.844;4.396;2023-04-03T02:15:26;5.30;99.90
23160;DHT22;11748;50.844;4.396;2023-04-03T02:17:51;5.30;99.90
23160;DHT22;11748;50.844;4.396;2023-04-03T02:20:17;5.40;99.90
23160;DHT22;11748;50.844;4.396;2023-04-03T02:22:43;5.30;99.90
23160;DHT22;11748;50.844;4.396;2023-04-03T02:25:09;5.20;99.90
23160;DHT22;11748;50.844;4.396;2023-04-03T02:27:36;5.20;99.90
23160;DHT22;11748;50.844;4.396;2023-04-03T02:30:02;5.20;99.90
23160;DHT22;11748;50.844;4.396;2023-04-03T02:32:29;5.20;99.90
23160;DHT22;11748;50.844;4.396;2023-04-03T02:34:55;5.10;99.90
23160;DHT22;11748;50.844;4.396;2023-04-03T02:37:20;5.10;99.90
23160;DHT22;11748;50.844;4.396;2023-04-03T02:39:46;5.10;99.90
23160;DHT22;11748;50.844;4.396;2023-04-03T02:42:12;5.10;99.90
23160;DHT22;11748;50.844;4.396;2023-04-03T02:44:38;5.10;99.90
23160;DHT22;11748;50.844;4.396;2023-04-03T02:47:04;5.10;99.90
23160;DHT22;11748;50.844;4.396;2023-04-03T02:49:30;5.10;99.90
23160;DHT22;11748;50.844;4.396;2023-04-03T02:51:56;5.10;99.90
23160;DHT22;11748;50.844;4.396;2023-04-03T02:54:22;5.10;99.90
23160;DHT22;11748;50.844;4.396;2023-04-03T02:56:49;5.10;99.90
23160;DHT22;11748;50.844;4.396;2023-04-03T02:59:15;5.10;99.90
23160;DHT22;11748;50.844;4.396;2023-04-03T03:01:40;5.10;99.90
23160;DHT22;11748;50.844;4.396;2023-04-03T03:04:06;5.10;99.90
23160;DHT22;11748;50.844;4.396;2023-04-03T03:06:32;5.00;99.90
23160;DHT22;11748;50.844;4.396;2023-04-03T03:08:58;5.00;99.90
23160;DHT22;11748;50.844;4.396;2023-04-03T03:11:23;5.00;99.90
23160;DHT22;11748;50.844;4.396;2023-04-03T03:13:50;5.00;99.90
23160;DHT22;11748;50.844;4.396;2023-04-03T03:16:16;5.00;99.90
23160;DHT22;11748;50.844;4.396;2023-04-03T03:18:41;5.00;99.90
23160;DHT22;11748;50.844;4.396;2023-04-03T03:21:09;5.00;99.90
23160;DHT22;11748;50.844;4.396;2023-04-03T03:23:36;5.00;99.90
23160;DHT22;11748;50.844;4.396;2023-04-03T03:26:04;5.00;99.90
23160;DHT22;11748;50.844;4.396;2023-04-03T03:28:30;5.00;99.90
23160;DHT22;11748;50.844;4.396;2023-04-03T03:30:57;4.90;99.90
23160;DHT22;11748;50.844;4.396;2023-04-03T03:33:22;4.90;99.90
23160;DHT22;11748;50.844;4.396;2023-04-03T03:35:48;5.00;99.90
23160;DHT22;11748;50.844;4.396;2023-04-03T03:38:14;5.00;99.90
23160;DHT22;11748;50.844;4.396;2023-04-03T03:40:40;5.00;99.90
23160;DHT22;11748;50.844;4.396;2023-04-03T03:43:05;5.00;99.90
23160;DHT22;11748;50.844;4.396;2023-04-03T03:45:31;5.00;99.90
23160;DHT22;11748;50.844;4.396;2023-04-03T03:47:57;4.90;99.90
23160;DHT22;11748;50.844;4.396;2023-04-03T03:50:23;4.90;99.90
23160;DHT22;11748;50.844;4.396;2023-04-03T03:52:48;4.90;99.90
23160;DHT22;11748;50.844;4.396;2023-04-03T03:55:14;4.80;99.90
23160;DHT22;11748;50.844;4.396;2023-04-03T03:57:40;4.90;99.90
23160;DHT22;11748;50.844;4.396;2023-04-03T04:00:07;4.80;99.90
23160;DHT22;11748;50.844;4.396;2023-04-03T04:02:34;4.80;99.90
23160;DHT22;11748;50.844;4.396;2023-04-03T04:05:00;4.80;99.90
23160;DHT22;11748;50.844;4.396;2023-04-03T04:07:25;4.80;99.90
23160;DHT22;11748;50.844;4.396;2023-04-03T04:09:53;4.80;99.90
23160;DHT22;11748;50.844;4.396;2023-04-03T04:12:19;4.80;99.90
23160;DHT22;11748;50.844;4.396;2023-04-03T04:14:45;4.80;99.90
23160;DHT22;11748;50.844;4.396;2023-04-03T04:17:13;4.80;99.90
23160;DHT22;11748;50.844;4.396;2023-04-03T04:19:38;4.70;99.90
23160;DHT22;11748;50.844;4.396;2023-04-03T04:22:04;4.70;99.90
23160;DHT22;11748;50.844;4.396;2023-04-03T04:24:30;4.70;99.90
23160;DHT22;11748;50.844;4.396;2023-04-03T04:26:56;4.70;99.90
23160;DHT22;11748;50.844;4.396;2023-04-03T04:29:21;4.70;99.90
23160;DHT22;11748;50.844;4.396;2023-04-03T04:31:47;4.60;99.90
23160;DHT22;11748;50.844;4.396;2023-04-03T04:34:12;4.60;99.90
23160;DHT22;11748;50.844;4.396;2023-04-03T04:36:39;4.60;99.90
23160;DHT22;11748;50.844;4.396;2023-04-03T04:39:05;4.50;99.90
23160;DHT22;11748;50.844;4.396;2023-04-03T04:41:31;4.50;99.90
23160;DHT22;11748;50.844;4.396;2023-04-03T04:43:57;4.50;99.90
23160;DHT22;11748;50.844;4.396;2023-04-03T04:46:23;4.50;99.90
23160;DHT22;11748;50.844;4.396;2023-04-03T04:48:49;4.50;99.90
23160;DHT22;11748;50.844;4.396;2023-04-03T04:51:15;4.50;99.90
23160;DHT22;11748;50.844;4.396;2023-04-03T04:53:41;4.50;99.90
23160;DHT22;11748;50.844;4.396;2023-04-03T04:56:07;4.40;99.90
23160;DHT22;11748;50.844;4.396;2023-04-03T04:58:32;4.30;99.90
23160;DHT22;11748;50.844;4.396;2023-04-03T05:01:06;4.30;99.90
23160;DHT22;11748;50.844;4.396;2023-04-03T05:03:32;4.30;99.90
23160;DHT22;11748;50.844;4.396;2023-04-03T05:05:58;4.30;99.90
23160;DHT22;11748;50.844;4.396;2023-04-03T05:08:24;4.30;99.90
23160;DHT22;11748;50.844;4.396;2023-04-03T05:10:50;4.30;99.90
23160;DHT22;11748;50.844;4.396;2023-04-03T05:13:16;4.40;99.90
23160;DHT22;11748;50.844;4.396;2023-04-03T05:15:42;4.30;99.90
23160;DHT22;11748;50.844;4.396;2023-04-03T05:18:08;4.20;99.90
23160;DHT22;11748;50.844;4.396;2023-04-03T05:20:34;4.30;99.90
23160;DHT22;11748;50.844;4.396;2023-04-03T05:23:00;4.30;99.90
23160;DHT22;11748;50.844;4.396;2023-04-03T05:25:27;4.40;99.90
23160;DHT22;11748;50.844;4.396;2023-04-03T05:27:52;4.40;99.90
23160;DHT22;11748;50.844;4.396;2023-04-03T05:30:18;4.40;99.90
23160;DHT22;11748;50.844;4.396;2023-04-03T05:32:44;4.40;99.90
23160;DHT22;11748;50.844;4.396;2023-04-03T05:35:11;4.40;99.90
23160;DHT22;11748;50.844;4.396;2023-04-03T05:37:37;4.40;99.90
23160;DHT22;11748;50.844;4.396;2023-04-03T05:40:04;4.40;99.90
23160;DHT22;11748;50.844;4.396;2023-04-03T05:42:30;4.40;99.90
23160;DHT22;11748;50.844;4.396;2023-04-03T05:44:55;4.40;99.90
23160;DHT22;11748;50.844;4.396;2023-04-03T05:47:21;4.40;99.90
23160;DHT22;11748;50.844;4.396;2023-04-03T05:49:47;4.50;99.90
23160;DHT22;11748;50.844;4.396;2023-04-03T05:52:29;4.50;99.90
23160;DHT22;11748;50.844;4.396;2023-04-03T05:54:55;4.60;99.90
23160;DHT22;11748;50.844;4.396;2023-04-03T05:57:21;4.60;99.90
23160;DHT22;11748;50.844;4.396;2023-04-03T05:59:47;4.60;99.90
23160;DHT22;11748;50.844;4.396;2023-04-03T06:02:17;4.60;99.90
23160;DHT22;11748;50.844;4.396;2023-04-03T06:04:44;4.60;99.90
23160;DHT22;11748;50.844;4.396;2023-04-03T06:07:15;4.60;99.90
23160;DHT22;11748;50.844;4.396;2023-04-03T06:09:41;4.70;99.90
23160;DHT22;11748;50.844;4.396;2023-04-03T06:12:07;4.80;99.90
23160;DHT22;11748;50.844;4.396;2023-04-03T06:14:33;4.80;99.90
23160;DHT22;11748;50.844;4.396;2023-04-03T06:17:00;4.90;99.90
23160;DHT22;11748;50.844;4.396;2023-04-03T06:19:27;4.90;99.90
23160;DHT22;11748;50.844;4.396;2023-04-03T06:21:53;4.90;99.90
23160;DHT22;11748;50.844;4.396;2023-04-03T06:24:19;4.90;99.90
23160;DHT22;11748;50.844;4.396;2023-04-03T06:26:47;4.90;99.90
23160;DHT22;11748;50.844;4.396;2023-04-03T06:29:13;5.00;99.90
23160;DHT22;11748;50.844;4.396;2023-04-03T06:31:39;5.00;99.90
23160;DHT22;11748;50.844;4.396;2023-04-03T06:34:05;5.40;99.90
23160;DHT22;11748;50.844;4.396;2023-04-03T06:36:32;6.20;99.90
23160;DHT22;11748;50.844;4.396;2023-04-03T06:38:58;6.80;99.90
23160;DHT22;11748;50.844;4.396;2023-04-03T06:41:24;6.90;99.90
23160;DHT22;11748;50.844;4.396;2023-04-03T06:43:51;6.90;99.90
23160;DHT22;11748;50.844;4.396;2023-04-03T06:46:20;6.70;99.90
23160;DHT22;11748;50.844;4.396;2023-04-03T06:48:47;6.30;99.90
23160;DHT22;11748;50.844;4.396;2023-04-03T06:51:22;6.30;99.90
23160;DHT22;11748;50.844;4.396;2023-04-03T06:53:49;5.90;99.90
23160;DHT22;11748;50.844;4.396;2023-04-03T06:56:16;5.90;99.90
23160;DHT22;11748;50.844;4.396;2023-04-03T06:58:42;5.90;99.90
23160;DHT22;11748;50.844;4.396;2023-04-03T07:01:09;5.90;99.90
23160;DHT22;11748;50.844;4.396;2023-04-03T07:03:36;6.00;99.90
23160;DHT22;11748;50.844;4.396;2023-04-03T07:06:03;5.90;99.90
23160;DHT22;11748;50.844;4.396;2023-04-03T07:08:29;5.90;99.90
23160;DHT22;11748;50.844;4.396;2023-04-03T07:10:55;5.90;99.90
23160;DHT22;11748;50.844;4.396;2023-04-03T07:13:20;5.70;99.90
23160;DHT22;11748;50.844;4.396;2023-04-03T07:15:46;5.70;99.90
23160;DHT22;11748;50.844;4.396;2023-04-03T07:18:12;5.80;99.90
23160;DHT22;11748;50.844;4.396;2023-04-03T07:20:38;5.80;99.90
23160;DHT22;11748;50.844;4.396;2023-04-03T07:23:04;5.80;99.90
23160;DHT22;11748;50.844;4.396;2023-04-03T07:25:30;5.90;99.90
23160;DHT22;11748;50.844;4.396;2023-04-03T07:27:57;5.80;99.90
23160;DHT22;11748;50.844;4.396;2023-04-03T07:30:23;5.80;99.90
23160;DHT22;11748;50.844;4.396;2023-04-03T07:32:49;5.80;99.90
23160;DHT22;11748;50.844;4.396;2023-04-03T07:35:15;5.90;99.90
23160;DHT22;11748;50.844;4.396;2023-04-03T07:37:42;5.90;99.90
23160;DHT22;11748;50.844;4.396;2023-04-03T07:40:08;5.90;99.90
23160;DHT22;11748;50.844;4.396;2023-04-03T07:42:34;6.00;99.90
23160;DHT22;11748;50.844;4.396;2023-04-03T07:45:01;6.10;99.90
23160;DHT22;11748;50.844;4.396;2023-04-03T07:47:27;6.00;99.90
23160;DHT22;11748;50.844;4.396;2023-04-03T07:49:53;6.10;99.90
23160;DHT22;11748;50.844;4.396;2023-04-03T07:52:18;6.10;99.90
23160;DHT22;11748;50.844;4.396;2023-04-03T07:54:44;6.10;99.90
23160;DHT22;11748;50.844;4.396;2023-04-03T07:57:10;6.10;99.90
23160;DHT22;11748;50.844;4.396;2023-04-03T07:59:36;6.20;99.90
23160;DHT22;11748;50.844;4.396;2023-04-03T08:02:01;6.20;99.90
23160;DHT22;11748;50.844;4.396;2023-04-03T08:04:30;6.30;99.90
23160;DHT22;11748;50.844;4.396;2023-04-03T08:06:56;6.40;99.90
23160;DHT22;11748;50.844;4.396;2023-04-03T08:09:22;6.50;99.90
23160;DHT22;11748;50.844;4.396;2023-04-03T08:11:48;6.60;99.90
23160;DHT22;11748;50.844;4.396;2023-04-03T08:14:14;6.70;99.90
23160;DHT22;11748;50.844;4.396;2023-04-03T08:16:45;6.70;99.90
23160;DHT22;11748;50.844;4.396;2023-04-03T08:19:11;6.80;99.90
23160;DHT22;11748;50.844;4.396;2023-04-03T08:21:40;6.80;99.90
23160;DHT22;11748;50.844;4.396;2023-04-03T08:24:07;6.80;99.90
23160;DHT22;11748;50.844;4.396;2023-04-03T08:26:33;6.90;99.90
23160;DHT22;11748;50.844;4.396;2023-04-03T08:28:59;6.90;99.90
23160;DHT22;11748;50.844;4.396;2023-04-03T08:31:25;7.10;99.90
23160;DHT22;11748;50.844;4.396;2023-04-03T08:33:51;7.10;99.90
23160;DHT22;11748;50.844;4.396;2023-04-03T08:36:25;7.10;99.90
23160;DHT22;11748;50.844;4.396;2023-04-03T08:38:52;7.20;99.90
23160;DHT22;11748;50.844;4.396;2023-04-03T08:49:57;7.50;99.90
23160;DHT22;11748;50.844;4.396;2023-04-03T08:52:39;7.40;99.90
23160;DHT22;11748;50.844;4.396;2023-04-03T08:55:31;7.40;99.90
23160;DHT22;11748;50.844;4.396;2023-04-03T08:58:02;7.50;99.90
23160;DHT22;11748;50.844;4.396;2023-04-03T09:00:58;7.70;99.90
23160;DHT22;11748;50.844;4.396;2023-04-03T09:03:30;7.70;99.90
23160;DHT22;11748;50.844;4.396;2023-04-03T09:06:32;7.80;99.90
23160;DHT22;11748;50.844;4.396;2023-04-03T09:14:38;7.90;99.90
23160;DHT22;11748;50.844;4.396;2023-04-03T09:17:14;8.00;99.90
23160;DHT22;11748;50.844;4.396;2023-04-03T09:19:54;8.10;99.90
23160;DHT22;11748;50.844;4.396;2023-04-03T09:22:28;8.10;99.90
23160;DHT22;11748;50.844;4.396;2023-04-03T09:27:28;8.20;99.90
23160;DHT22;11748;50.844;4.396;2023-04-03T09:29:56;8.30;99.90
23160;DHT22;11748;50.844;4.396;2023-04-03T09:32:32;8.40;99.90
23160;DHT22;11748;50.844;4.396;2023-04-03T09:35:48;8.50;99.90
23160;DHT22;11748;50.844;4.396;2023-04-03T09:40:43;8.60;99.90
23160;DHT22;11748;50.844;4.396;2023-04-03T09:43:27;8.70;99.90
23160;DHT22;11748;50.844;4.396;2023-04-03T09:45:55;8.80;99.90
23160;DHT22;11748;50.844;4.396;2023-04-03T09:48:25;8.90;99.90
23160;DHT22;11748;50.844;4.396;2023-04-03T09:50:59;8.90;99.90
23160;DHT22;11748;50.844;4.396;2023-04-03T09:53:32;9.00;99.90
23160;DHT22;11748;50.844;4.396;2023-04-03T09:56:00;9.10;99.90
23160;DHT22;11748;50.844;4.396;2023-04-03T09:58:29;9.20;99.90
23160;DHT22;11748;50.844;4.396;2023-04-03T10:01:00;9.30;99.90
23160;DHT22;11748;50.844;4.396;2023-04-03T10:03:32;9.40;99.90
23160;DHT22;11748;50.844;4.396;2023-04-03T10:06:00;9.40;99.90
23160;DHT22;11748;50.844;4.396;2023-04-03T10:08:33;9.50;99.90
23160;DHT22;11748;50.844;4.396;2023-04-03T10:13:32;9.40;99.90
23160;DHT22;11748;50.844;4.396;2023-04-03T10:16:12;9.50;99.90
23160;DHT22;11748;50.844;4.396;2023-04-03T10:18:45;9.50;99.90
23160;DHT22;11748;50.844;4.396;2023-04-03T10:24:14;9.60;99.90
23160;DHT22;11748;50.844;4.396;2023-04-03T10:34:43;9.80;99.90
23160;DHT22;11748;50.844;4.396;2023-04-03T10:37:26;9.80;99.90
23160;DHT22;11748;50.844;4.396;2023-04-03T10:43:25;9.90;99.90
23160;DHT22;11748;50.844;4.396;2023-04-03T10:46:06;10.00;99.90
23160;DHT22;11748;50.844;4.396;2023-04-03T10:54:55;10.10;99.90
23160;DHT22;11748;50.844;4.396;2023-04-03T10:57:25;10.10;99.90
23160;DHT22;11748;50.844;4.396;2023-04-03T10:59:59;10.30;99.90
23160;DHT22;11748;50.844;4.396;2023-04-03T11:05:45;10.50;99.90
23160;DHT22;11748;50.844;4.396;2023-04-03T11:08:24;10.60;99.90
23160;DHT22;11748;50.844;4.396;2023-04-03T11:10:55;10.60;99.90
23160;DHT22;11748;50.844;4.396;2023-04-03T11:13:35;10.60;99.50
23160;DHT22;11748;50.844;4.396;2023-04-03T11:16:04;10.60;99.30
23160;DHT22;11748;50.844;4.396;2023-04-03T11:18:48;10.70;99.50
23160;DHT22;11748;50.844;4.396;2023-04-03T11:21:21;10.90;98.80
23160;DHT22;11748;50.844;4.396;2023-04-03T11:23:48;11.00;98.40
23160;DHT22;11748;50.844;4.396;2023-04-03T11:26:21;11.00;98.30
23160;DHT22;11748;50.844;4.396;2023-04-03T11:28:53;11.00;98.20
23160;DHT22;11748;50.844;4.396;2023-04-03T11:36:34;11.10;98.70
23160;DHT22;11748;50.844;4.396;2023-04-03T11:39:24;11.20;98.90
23160;DHT22;11748;50.844;4.396;2023-04-03T11:41:51;11.30;98.00
23160;DHT22;11748;50.844;4.396;2023-04-03T11:44:37;11.40;98.10
23160;DHT22;11748;50.844;4.396;2023-04-03T11:47:05;11.50;98.60
23160;DHT22;11748;50.844;4.396;2023-04-03T11:50:00;11.50;98.50
23160;DHT22;11748;50.844;4.396;2023-04-03T12:00:50;11.50;95.80
23160;DHT22;11748;50.844;4.396;2023-04-03T12:03:29;11.60;96.00
23160;DHT22;11748;50.844;4.396;2023-04-03T12:16:30;12.00;94.90
23160;DHT22;11748;50.844;4.396;2023-04-03T12:19:28;12.20;94.80
23160;DHT22;11748;50.844;4.396;2023-04-03T12:24:27;12.10;93.70
23160;DHT22;11748;50.844;4.396;2023-04-03T12:29:47;12.10;92.40
23160;DHT22;11748;50.844;4.396;2023-04-03T12:32:55;12.00;91.50
23160;DHT22;11748;50.844;4.396;2023-04-03T12:35:57;11.80;90.40
23160;DHT22;11748;50.844;4.396;2023-04-03T12:38:37;11.90;90.40
23160;DHT22;11748;50.844;4.396;2023-04-03T12:46:37;11.80;90.10
23160;DHT22;11748;50.844;4.396;2023-04-03T12:49:37;11.90;89.40
23160;DHT22;11748;50.844;4.396;2023-04-03T12:52:04;11.90;89.60
23160;DHT22;11748;50.844;4.396;2023-04-03T12:54:38;11.90;89.10
23160;DHT22;11748;50.844;4.396;2023-04-03T12:57:27;11.90;88.40
23160;DHT22;11748;50.844;4.396;2023-04-03T12:59:53;12.10;88.30
23160;DHT22;11748;50.844;4.396;2023-04-03T13:02:30;12.20;87.80
23160;DHT22;11748;50.844;4.396;2023-04-03T13:04:58;12.30;87.30
23160;DHT22;11748;50.844;4.396;2023-04-03T13:07:33;12.40;85.70
23160;DHT22;11748;50.844;4.396;2023-04-03T13:10:13;12.40;84.80
23160;DHT22;11748;50.844;4.396;2023-04-03T13:15:17;12.40;84.50
23160;DHT22;11748;50.844;4.396;2023-04-03T13:17:43;12.40;83.50
23160;DHT22;11748;50.844;4.396;2023-04-03T13:20:17;12.30;83.00
23160;DHT22;11748;50.844;4.396;2023-04-03T13:23:07;12.30;82.00
23160;DHT22;11748;50.844;4.396;2023-04-03T13:25:36;12.30;80.80
23160;DHT22;11748;50.844;4.396;2023-04-03T13:28:06;12.20;81.60
23160;DHT22;11748;50.844;4.396;2023-04-03T13:30:35;12.20;81.60
23160;DHT22;11748;50.844;4.396;2023-04-03T13:33:04;12.20;81.30
23160;DHT22;11748;50.844;4.396;2023-04-03T13:38:21;12.50;81.70
23160;DHT22;11748;50.844;4.396;2023-04-03T13:40:51;12.50;80.40
23160;DHT22;11748;50.844;4.396;2023-04-03T13:43:24;12.50;78.60
23160;DHT22;11748;50.844;4.396;2023-04-03T13:48:43;12.50;77.70
23160;DHT22;11748;50.844;4.396;2023-04-03T13:53:55;12.60;80.20
23160;DHT22;11748;50.844;4.396;2023-04-03T13:58:57;12.80;80.00
23160;DHT22;11748;50.844;4.396;2023-04-03T14:01:24;12.70;79.00
23160;DHT22;11748;50.844;4.396;2023-04-03T14:03:54;12.70;79.50
23160;DHT22;11748;50.844;4.396;2023-04-03T14:06:21;12.70;79.80
23160;DHT22;11748;50.844;4.396;2023-04-03T14:08:47;12.70;79.70
23160;DHT22;11748;50.844;4.396;2023-04-03T14:11:16;12.60;80.70
23160;DHT22;11748;50.844;4.396;2023-04-03T14:13:43;12.60;81.80
23160;DHT22;11748;50.844;4.396;2023-04-03T14:16:17;12.50;79.10
23160;DHT22;11748;50.844;4.396;2023-04-03T14:18:44;12.60;79.70
23160;DHT22;11748;50.844;4.396;2023-04-03T14:21:12;12.50;80.30
23160;DHT22;11748;50.844;4.396;2023-04-03T14:23:39;12.50;78.90
23160;DHT22;11748;50.844;4.396;2023-04-03T14:26:10;12.50;78.80
23160;DHT22;11748;50.844;4.396;2023-04-03T14:28:37;12.50;79.30
23160;DHT22;11748;50.844;4.396;2023-04-03T14:31:02;12.60;79.70
23160;DHT22;11748;50.844;4.396;2023-04-03T14:33:28;12.60;79.90
23160;DHT22;11748;50.844;4.396;2023-04-03T14:35:56;12.80;78.60
23160;DHT22;11748;50.844;4.396;2023-04-03T14:38:24;12.80;77.60
23160;DHT22;11748;50.844;4.396;2023-04-03T14:40:51;12.70;77.70
23160;DHT22;11748;50.844;4.396;2023-04-03T14:43:17;12.60;77.70
23160;DHT22;11748;50.844;4.396;2023-04-03T14:45:44;12.60;78.70
23160;DHT22;11748;50.844;4.396;2023-04-03T14:48:17;12.50;79.20
23160;DHT22;11748;50.844;4.396;2023-04-03T14:50:44;12.60;78.20
23160;DHT22;11748;50.844;4.396;2023-04-03T14:53:11;12.50;78.10
23160;DHT22;11748;50.844;4.396;2023-04-03T14:55:38;12.50;78.10
23160;DHT22;11748;50.844;4.396;2023-04-03T14:58:04;12.50;78.70
23160;DHT22;11748;50.844;4.396;2023-04-03T15:00:29;12.50;78.80
23160;DHT22;11748;50.844;4.396;2023-04-03T15:02:55;12.50;79.30
23160;DHT22;11748;50.844;4.396;2023-04-03T15:05:21;12.50;78.90
23160;DHT22;11748;50.844;4.396;2023-04-03T15:07:49;12.50;78.10
23160;DHT22;11748;50.844;4.396;2023-04-03T15:10:19;12.40;77.80
23160;DHT22;11748;50.844;4.396;2023-04-03T15:12:46;12.40;77.30
23160;DHT22;11748;50.844;4.396;2023-04-03T15:15:13;12.20;77.50
23160;DHT22;11748;50.844;4.396;2023-04-03T15:17:39;12.30;77.20
23160;DHT22;11748;50.844;4.396;2023-04-03T15:20:19;12.30;76.60
23160;DHT22;11748;50.844;4.396;2023-04-03T15:22:45;12.40;76.70
23160;DHT22;11748;50.844;4.396;2023-04-03T15:25:11;12.40;75.50
23160;DHT22;11748;50.844;4.396;2023-04-03T15:27:38;12.40;75.50
23160;DHT22;11748;50.844;4.396;2023-04-03T15:30:07;12.30;75.90
23160;DHT22;11748;50.844;4.396;2023-04-03T15:32:33;12.20;76.50
23160;DHT22;11748;50.844;4.396;2023-04-03T15:35:00;12.30;76.20
23160;DHT22;11748;50.844;4.396;2023-04-03T15:37:26;12.20;76.40
23160;DHT22;11748;50.844;4.396;2023-04-03T15:39:52;12.20;76.40
23160;DHT22;11748;50.844;4.396;2023-04-03T15:42:17;12.30;76.00
23160;DHT22;11748;50.844;4.396;2023-04-03T15:44:43;12.30;76.40
23160;DHT22;11748;50.844;4.396;2023-04-03T15:47:09;12.40;75.40
23160;DHT22;11748;50.844;4.396;2023-04-03T15:49:35;12.30;75.30
23160;DHT22;11748;50.844;4.396;2023-04-03T15:52:01;12.30;75.70
23160;DHT22;11748;50.844;4.396;2023-04-03T15:54:27;12.40;76.50
23160;DHT22;11748;50.844;4.396;2023-04-03T15:56:55;12.40;77.00
23160;DHT22;11748;50.844;4.396;2023-04-03T15:59:20;12.30;77.10
23160;DHT22;11748;50.844;4.396;2023-04-03T16:01:47;12.30;78.10
23160;DHT22;11748;50.844;4.396;2023-04-03T16:04:13;12.20;79.30
23160;DHT22;11748;50.844;4.396;2023-04-03T16:06:40;12.20;79.40
23160;DHT22;11748;50.844;4.396;2023-04-03T16:09:06;12.10;79.70
23160;DHT22;11748;50.844;4.396;2023-04-03T16:11:32;12.20;80.70
23160;DHT22;11748;50.844;4.396;2023-04-03T16:14:00;12.10;80.00
23160;DHT22;11748;50.844;4.396;2023-04-03T16:16:26;12.00;80.40
23160;DHT22;11748;50.844;4.396;2023-04-03T16:18:54;12.00;80.70
23160;DHT22;11748;50.844;4.396;2023-04-03T16:21:20;11.90;80.90
23160;DHT22;11748;50.844;4.396;2023-04-03T16:23:46;11.90;81.50
23160;DHT22;11748;50.844;4.396;2023-04-03T16:26:12;12.00;82.30
23160;DHT22;11748;50.844;4.396;2023-04-03T16:28:47;11.90;82.20
23160;DHT22;11748;50.844;4.396;2023-04-03T16:31:16;11.80;82.80
23160;DHT22;11748;50.844;4.396;2023-04-03T16:33:42;11.80;83.10
23160;DHT22;11748;50.844;4.396;2023-04-03T16:36:11;11.90;82.70
23160;DHT22;11748;50.844;4.396;2023-04-03T16:38:43;11.80;83.20
23160;DHT22;11748;50.844;4.396;2023-04-03T16:41:12;11.80;83.60
23160;DHT22;11748;50.844;4.396;2023-04-03T16:43:37;11.80;83.40
23160;DHT22;11748;50.844;4.396;2023-04-03T16:46:05;11.70;83.90
23160;DHT22;11748;50.844;4.396;2023-04-03T16:48:31;11.60;84.20
23160;DHT22;11748;50.844;4.396;2023-04-03T16:51:00;11.70;84.10
23160;DHT22;11748;50.844;4.396;2023-04-03T16:53:27;11.60;84.10
23160;DHT22;11748;50.844;4.396;2023-04-03T16:55:52;11.60;84.60
23160;DHT22;11748;50.844;4.396;2023-04-03T16:58:19;11.50;85.20
23160;DHT22;11748;50.844;4.396;2023-04-03T17:00:45;11.40;85.50
23160;DHT22;11748;50.844;4.396;2023-04-03T17:03:13;11.40;85.20
23160;DHT22;11748;50.844;4.396;2023-04-03T17:05:39;11.40;85.40
23160;DHT22;11748;50.844;4.396;2023-04-03T17:08:05;11.30;85.50
23160;DHT22;11748;50.844;4.396;2023-04-03T17:10:31;11.30;85.60
23160;DHT22;11748;50.844;4.396;2023-04-03T17:12:58;11.30;85.80
23160;DHT22;11748;50.844;4.396;2023-04-03T17:15:24;11.30;86.20
23160;DHT22;11748;50.844;4.396;2023-04-03T17:17:51;11.30;86.50
23160;DHT22;11748;50.844;4.396;2023-04-03T17:20:17;11.30;86.60
23160;DHT22;11748;50.844;4.396;2023-04-03T17:22:43;11.30;86.60
23160;DHT22;11748;50.844;4.396;2023-04-03T17:25:10;11.20;86.20
23160;DHT22;11748;50.844;4.396;2023-04-03T17:27:36;11.20;86.10